首页
METAR-TAF:

METAR-TAF

机场 :

RAF

Holbeach, 英格兰

纬度: 52-52N, 经度: 000-09E, 海拔: 3米

当前天气观测

该预报发布于3小时和59分钟前的14:50 UTC
风速18节,风向西转西南
温度 28°C
湿度 55%
气压 1019 hPa
能见度10公里或以上
1500米以下无云,无积雨云

METAR: EGYH 221450Z 25018KT CAVOK 28/18 Q1019 RMK BLU

时间: 19:49 (18:49 UTC)


TAF: 丢失

超过4000个机场的气象观测和天气预报(METAR&TAF报告)。

可查询的气象台以黄色和红色小点在地图上表示。

将鼠标移到小点上方,可查看气象台名称。

然后点击查看天气观测和预报。

如需切换地图:点击带黑十字的绿色按钮放大地图;点击带横线的绿色按钮缩小地图;或者点击绿色箭头查看邻近地区的地图。


METAR-TAF: